Apalachin, New York
Current Conditions -  °F | °C
As of 4:53 AM on Saturday 25 Oct 2014 (Local Time) from KBGM Reporting Station
Broken Clouds Broken Clouds  
Wind Chill: 36°   Ceiling: 6000
Heat Index: 40°   Visibility: 10mi
Dew Point: 33°   Wind: 6mph
Humidity: 77%   Direction: 220°SW
Pressure: 29.87"   Gusts: NA
Location:  42.07°N, 76.15°W
Report Text: KBGM 250853Z AUTO 22005KT 10SM BKN060 04/01 A2987 RMK AO2 SLP119 T00440006 58006
Loading
Personal Weather Stations






























Interactive Weather Map
Tropical Storm Tracking
New forecast layout! Learn more

10-Day Weather Forecast

Advertisements
Track Severe Weather on mobile